Time;durP1;ratioP1;P1;durP2;ratioP2;P2;SDS_P1;SDS_P2;PMS_P1;PMS_P2;Temp;Humidity;BMP_temperature;BMP_pressure;BME280_temperature;BME280_humidity;BME280_pressure;Samples;Min_cycle;Max_cycle;Signal;HPM_P1;HPM_P2
2021/11/10 00:18:14;;;;;;;1.12;1.10;;;;;;;;;;4919149;28;20116;-60
2021/11/10 00:20:40;;;;;;;1.10;1.10;;;;;;;;;;4229551;33;20099;-60
2021/11/10 00:23:06;;;;;;;2.30;1.35;;;;;;;;;;4222380;33;20549;-61
2021/11/10 00:25:32;;;;;;;1.40;1.30;;;;;;;;;;4216645;34;20201;-61
2021/11/10 00:27:58;;;;;;;1.25;1.17;;;;;;;;;;4218555;34;20137;-70
2021/11/10 00:30:24;;;;;;;1.10;1.10;;;;;;;;;;4192462;34;20455;-61
2021/11/10 00:32:49;;;;;;;1.58;1.20;;;;;;;;;;4205426;34;20129;-61
2021/11/10 00:35:15;;;;;;;1.40;1.30;;;;;;;;;;4205516;34;20209;-61
2021/11/10 00:37:41;;;;;;;1.30;1.20;;;;;;;;;;4213355;34;20117;-69
2021/11/10 00:40:07;;;;;;;1.50;1.40;;;;;;;;;;4206142;34;20125;-69
2021/11/10 00:42:33;;;;;;;1.30;1.20;;;;;;;;;;4218005;34;20141;-69
2021/11/10 00:44:59;;;;;;;1.50;1.40;;;;;;;;;;4219069;33;20517;-70
2021/11/10 00:47:25;;;;;;;1.20;1.10;;;;;;;;;;4219200;34;20227;-69
2021/11/10 00:49:51;;;;;;;1.20;1.10;;;;;;;;;;4219311;33;20112;-69
2021/11/10 00:52:17;;;;;;;1.27;1.17;;;;;;;;;;4206257;34;20121;-66
2021/11/10 00:54:43;;;;;;;1.20;1.20;;;;;;;;;;4211485;33;20545;-69
2021/11/10 00:57:08;;;;;;;1.50;1.40;;;;;;;;;;4213561;34;20125;-69
2021/11/10 00:59:34;;;;;;;3.90;1.20;;;;;;;;;;4218567;34;20105;-68
2021/11/10 01:02:00;;;;;;;1.17;1.15;;;;;;;;;;4218920;34;20105;-69
2021/11/10 01:04:26;;;;;;;6.68;1.42;;;;;;;;;;4218959;34;20208;-69
2021/11/10 01:06:52;;;;;;;2.70;1.20;;;;;;;;;;4218902;34;20147;-69
2021/11/10 01:09:18;;;;;;;1.30;1.20;;;;;;;;;;4219103;34;20195;-69
2021/11/10 01:11:45;;;;;;;1.10;1.10;;;;;;;;;;4218942;34;20112;-70
2021/11/10 01:14:11;;;;;;;1.10;1.10;;;;;;;;;;4218725;34;20529;-67
2021/11/10 01:16:37;;;;;;;1.10;1.10;;;;;;;;;;4219188;34;20112;-70
2021/11/10 01:19:03;;;;;;;1.25;1.20;;;;;;;;;;4218831;34;20140;-69
2021/11/10 01:21:29;;;;;;;1.30;1.20;;;;;;;;;;4206030;34;20126;-69
2021/11/10 01:23:55;;;;;;;1.20;1.20;;;;;;;;;;4206126;34;20213;-69
2021/11/10 01:26:20;;;;;;;1.40;1.30;;;;;;;;;;4205910;34;20128;-69
2021/11/10 01:28:46;;;;;;;1.05;1.05;;;;;;;;;;4218837;34;20112;-67
2021/11/10 01:31:12;;;;;;;1.87;1.17;;;;;;;;;;4218726;34;20614;-68
2021/11/10 01:33:39;;;;;;;1.10;1.10;;;;;;;;;;4205869;34;20695;-70
2021/11/10 01:36:05;;;;;;;1.20;1.10;;;;;;;;;;4205773;34;20105;-69
2021/11/10 01:38:30;;;;;;;1.15;1.05;;;;;;;;;;4218570;34;20105;-69
2021/11/10 01:40:56;;;;;;;1.30;1.20;;;;;;;;;;4218691;34;20465;-69
2021/11/10 01:43:22;;;;;;;1.73;1.30;;;;;;;;;;4218594;34;20210;-69
2021/11/10 01:45:48;;;;;;;1.30;1.20;;;;;;;;;;4218680;34;20204;-68
2021/11/10 01:48:15;;;;;;;1.25;1.20;;;;;;;;;;4218606;34;20104;-69
2021/11/10 01:50:40;;;;;;;3.25;1.33;;;;;;;;;;4218633;34;20130;-69
2021/11/10 01:53:09;;;;;;;1.73;1.30;;;;;;;;;;4218550;34;20582;-69
2021/11/10 01:55:35;;;;;;;1.30;1.20;;;;;;;;;;4218556;34;20117;-69
2021/11/10 01:58:02;;;;;;;1.92;1.60;;;;;;;;;;4218313;34;20121;-69
2021/11/10 02:00:29;;;;;;;1.98;1.33;;;;;;;;;;4218573;34;20121;-69
2021/11/10 02:02:56;;;;;;;1.30;1.20;;;;;;;;;;4193988;34;20277;-69
2021/11/10 02:05:22;;;;;;;1.30;1.20;;;;;;;;;;4218826;34;20101;-69
2021/11/10 02:07:48;;;;;;;1.30;1.20;;;;;;;;;;4205509;34;20216;-69
2021/11/10 02:10:15;;;;;;;1.42;1.20;;;;;;;;;;4218522;34;20532;-69
2021/11/10 02:12:41;;;;;;;1.73;1.20;;;;;;;;;;4218250;34;20117;-69
2021/11/10 02:15:09;;;;;;;1.70;1.35;;;;;;;;;;4218443;34;20434;-69
2021/11/10 02:17:35;;;;;;;1.05;1.05;;;;;;;;;;4205558;34;20112;-69
2021/11/10 02:20:07;;;;;;;1.05;1.05;;;;;;;;;;4205557;34;20106;-69
2021/11/10 02:22:33;;;;;;;1.98;1.40;;;;;;;;;;4218366;34;20119;-69
2021/11/10 02:25:01;;;;;;;1.85;1.65;;;;;;;;;;4205807;34;20559;-69
2021/11/10 02:27:33;;;;;;;1.30;1.23;;;;;;;;;;4205398;34;20131;-69
2021/11/10 02:29:59;;;;;;;1.30;1.20;;;;;;;;;;4218696;34;20448;-70
2021/11/10 02:32:25;;;;;;;1.62;1.35;;;;;;;;;;4218365;34;20914;-68
2021/11/10 02:34:51;;;;;;;1.42;1.30;;;;;;;;;;4217978;33;20197;-69
2021/11/10 02:37:20;;;;;;;1.33;1.23;;;;;;;;;;4218099;34;20097;-70
2021/11/10 02:39:46;;;;;;;1.80;1.50;;;;;;;;;;4218594;33;20216;-70
2021/11/10 02:42:13;;;;;;;1.30;1.20;;;;;;;;;;4218131;34;20197;-69
2021/11/10 02:44:39;;;;;;;7.25;1.60;;;;;;;;;;4194354;34;20211;-69
2021/11/10 02:47:04;;;;;;;1.58;1.48;;;;;;;;;;4218415;34;20195;-70
2021/11/10 02:49:30;;;;;;;1.50;1.40;;;;;;;;;;4205246;34;20209;-71
2021/11/10 02:52:04;;;;;;;3.62;1.60;;;;;;;;;;4218013;34;20121;-70
2021/11/10 02:54:31;;;;;;;2.45;1.45;;;;;;;;;;4205970;34;20219;-70
2021/11/10 02:57:03;;;;;;;1.62;1.45;;;;;;;;;;4193414;34;20139;-69
2021/11/10 02:59:29;;;;;;;3.62;1.70;;;;;;;;;;4204984;34;20201;-70
2021/11/10 03:01:55;;;;;;;3.75;1.80;;;;;;;;;;4205168;34;20229;-70
2021/11/10 03:04:26;;;;;;;1.60;1.37;;;;;;;;;;4217883;34;20112;-71
2021/11/10 03:06:52;;;;;;;1.67;1.58;;;;;;;;;;4217798;34;20522;-71
2021/11/10 03:09:19;;;;;;;1.50;1.35;;;;;;;;;;4204893;34;20380;-71
2021/11/10 03:11:45;;;;;;;2.15;1.80;;;;;;;;;;4193575;34;20098;-71
2021/11/10 03:14:11;;;;;;;2.05;1.50;;;;;;;;;;4193499;34;20193;-71
2021/11/10 03:16:37;;;;;;;1.60;1.50;;;;;;;;;;4217925;34;20105;-72
2021/11/10 03:19:03;;;;;;;2.17;1.55;;;;;;;;;;4218133;34;20125;-72
2021/11/10 03:21:29;;;;;;;1.62;1.45;;;;;;;;;;4205231;34;20144;-71
2021/11/10 03:23:54;;;;;;;4.00;1.60;;;;;;;;;;4219318;34;20613;-70
2021/11/10 03:26:22;;;;;;;2.70;1.50;;;;;;;;;;4220455;34;20558;-71
2021/11/10 03:28:48;;;;;;;4.70;1.62;;;;;;;;;;4220114;34;20100;-64
2021/11/10 03:31:14;;;;;;;1.80;1.60;;;;;;;;;;4220030;34;20132;-67
2021/11/10 03:33:40;;;;;;;1.50;1.40;;;;;;;;;;4219944;34;20189;-65
2021/11/10 03:36:06;;;;;;;2.62;1.60;;;;;;;;;;4219911;34;20156;-63
2021/11/10 03:38:32;;;;;;;2.50;1.58;;;;;;;;;;4219764;34;20197;-65
2021/11/10 03:40:58;;;;;;;2.70;1.40;;;;;;;;;;4219571;34;20125;-64
2021/11/10 03:43:23;;;;;;;2.87;1.40;;;;;;;;;;4219641;34;20123;-65
2021/11/10 03:45:50;;;;;;;1.50;1.40;;;;;;;;;;4217254;34;20104;-64
2021/11/10 03:48:16;;;;;;;3.97;1.42;;;;;;;;;;4219709;33;20120;-65
2021/11/10 03:50:43;;;;;;;2.05;1.85;;;;;;;;;;4206819;34;20109;-64
2021/11/10 03:53:09;;;;;;;1.90;1.60;;;;;;;;;;4206274;33;20171;-65
2021/11/10 03:55:38;;;;;;;1.95;1.20;;;;;;;;;;4219650;34;20164;-71
2021/11/10 03:58:04;;;;;;;1.50;1.40;;;;;;;;;;4219443;33;20097;-64
2021/11/10 04:00:30;;;;;;;1.75;1.40;;;;;;;;;;4219566;34;20125;-64
2021/11/10 04:02:56;;;;;;;1.60;1.50;;;;;;;;;;4195233;34;20437;-64
2021/11/10 04:05:22;;;;;;;1.50;1.40;;;;;;;;;;4219760;34;20185;-62
2021/11/10 04:07:48;;;;;;;1.62;1.33;;;;;;;;;;4206595;34;20548;-62
2021/11/10 04:10:14;;;;;;;1.45;1.35;;;;;;;;;;4219419;34;20129;-62
2021/11/10 04:12:40;;;;;;;1.75;1.65;;;;;;;;;;4219285;34;20132;-61
2021/11/10 04:15:06;;;;;;;1.55;1.30;;;;;;;;;;4219423;34;21160;-61
2021/11/10 04:17:32;;;;;;;1.67;1.58;;;;;;;;;;4219271;34;20125;-62
2021/11/10 04:19:58;;;;;;;2.28;1.60;;;;;;;;;;4219344;34;20121;-62
2021/11/10 04:22:24;;;;;;;2.25;1.60;;;;;;;;;;4219492;34;20564;-63
2021/11/10 04:24:51;;;;;;;1.77;1.60;;;;;;;;;;4219527;34;20117;-63
2021/11/10 04:27:20;;;;;;;2.08;1.87;;;;;;;;;;4219345;34;20506;-64
2021/11/10 04:29:47;;;;;;;2.00;1.80;;;;;;;;;;4219297;34;20159;-64
2021/11/10 04:32:13;;;;;;;1.75;1.60;;;;;;;;;;4219283;34;20129;-67
2021/11/10 04:34:39;;;;;;;3.90;1.80;;;;;;;;;;4205958;34;20107;-67
2021/11/10 04:37:05;;;;;;;3.53;2.15;;;;;;;;;;4219273;34;20105;-67
2021/11/10 04:39:32;;;;;;;3.05;1.90;;;;;;;;;;4219345;34;20113;-68
2021/11/10 04:41:58;;;;;;;1.90;1.70;;;;;;;;;;4206447;34;20120;-68
2021/11/10 04:44:24;;;;;;;2.58;1.80;;;;;;;;;;4206451;34;20256;-68
2021/11/10 04:46:51;;;;;;;2.53;1.85;;;;;;;;;;4206486;34;20810;-68
2021/11/10 04:49:17;;;;;;;2.83;1.80;;;;;;;;;;4206193;34;20548;-68
2021/11/10 04:51:44;;;;;;;1.90;1.70;;;;;;;;;;4219156;34;20127;-68
2021/11/10 04:54:12;;;;;;;2.85;2.03;;;;;;;;;;4206298;34;20093;-68
2021/11/10 04:56:38;;;;;;;1.87;1.50;;;;;;;;;;4206053;34;20114;-67
2021/11/10 04:59:04;;;;;;;1.85;1.45;;;;;;;;;;4206170;34;20112;-68
2021/11/10 05:01:32;;;;;;;2.17;1.52;;;;;;;;;;4194728;34;20097;-68
2021/11/10 05:03:58;;;;;;;3.72;1.70;;;;;;;;;;4218925;34;20616;-64
2021/11/10 05:06:24;;;;;;;1.50;1.40;;;;;;;;;;4206266;34;20208;-66
2021/11/10 05:08:50;;;;;;;1.52;1.42;;;;;;;;;;4194485;34;20462;-66
2021/11/10 05:11:16;;;;;;;1.70;1.40;;;;;;;;;;4219128;34;20196;-66
2021/11/10 05:13:42;;;;;;;4.05;1.75;;;;;;;;;;4194328;34;20133;-66
2021/11/10 05:16:07;;;;;;;3.35;1.60;;;;;;;;;;4219038;34;20105;-66
2021/11/10 05:18:34;;;;;;;3.10;1.70;;;;;;;;;;4205896;34;20155;-65
2021/11/10 05:21:00;;;;;;;1.60;1.42;;;;;;;;;;4218895;34;20182;-68
2021/11/10 05:23:25;;;;;;;1.77;1.60;;;;;;;;;;4218621;34;20101;-65
2021/11/10 05:25:51;;;;;;;1.60;1.50;;;;;;;;;;4218915;34;20192;-66
2021/11/10 05:28:17;;;;;;;6.25;1.80;;;;;;;;;;4219014;34;20117;-66
2021/11/10 05:30:43;;;;;;;7.78;5.35;;;;;;;;;;4218692;34;20539;-65
2021/11/10 05:33:09;;;;;;;3.05;2.30;;;;;;;;;;4218774;34;20123;-66
2021/11/10 05:35:35;;;;;;;2.78;1.80;;;;;;;;;;4218827;34;20125;-66
2021/11/10 05:38:01;;;;;;;3.08;1.45;;;;;;;;;;4218506;34;20176;-66
2021/11/10 05:40:27;;;;;;;2.53;1.87;;;;;;;;;;4219072;34;20093;-64
2021/11/10 05:42:53;;;;;;;1.70;1.50;;;;;;;;;;4218633;34;20643;-64
2021/11/10 05:45:19;;;;;;;3.20;1.67;;;;;;;;;;4193643;34;20190;-64
2021/11/10 05:47:45;;;;;;;3.58;1.60;;;;;;;;;;4202272;34;20134;-65
2021/11/10 05:50:11;;;;;;;1.40;1.30;;;;;;;;;;4218332;33;20117;-64
2021/11/10 05:52:38;;;;;;;1.70;1.60;;;;;;;;;;4203899;34;20480;-65
2021/11/10 05:55:04;;;;;;;1.83;1.55;;;;;;;;;;4218306;33;20105;-64
2021/11/10 05:57:31;;;;;;;2.28;1.90;;;;;;;;;;4217454;34;20552;-64
2021/11/10 05:59:57;;;;;;;2.67;1.55;;;;;;;;;;4204619;34;20136;-63
2021/11/10 06:02:23;;;;;;;4.50;1.70;;;;;;;;;;4182247;34;20528;-64
2021/11/10 06:04:49;;;;;;;6.55;1.90;;;;;;;;;;4217931;34;20122;-64
2021/11/10 06:07:15;;;;;;;2.70;1.67;;;;;;;;;;4205239;34;20172;-65
2021/11/10 06:09:42;;;;;;;1.75;1.60;;;;;;;;;;4205931;34;20178;-64
2021/11/10 06:12:08;;;;;;;4.68;3.30;;;;;;;;;;4205234;34;20108;-64
2021/11/10 06:14:34;;;;;;;7.03;2.80;;;;;;;;;;4218660;33;20113;-64
2021/11/10 06:17:00;;;;;;;8.50;2.72;;;;;;;;;;4217060;34;20137;-64
2021/11/10 06:19:26;;;;;;;4.75;2.47;;;;;;;;;;4217503;34;20121;-64
2021/11/10 06:21:53;;;;;;;2.95;2.58;;;;;;;;;;4205101;34;20614;-64
2021/11/10 06:24:20;;;;;;;4.07;2.10;;;;;;;;;;4205025;34;20112;-64
2021/11/10 06:26:48;;;;;;;2.17;1.98;;;;;;;;;;4218395;34;20430;-64
2021/11/10 06:29:15;;;;;;;2.28;2.05;;;;;;;;;;4217443;33;20089;-64
2021/11/10 06:31:40;;;;;;;3.10;2.00;;;;;;;;;;4205310;34;20193;-64
2021/11/10 06:34:06;;;;;;;4.47;1.75;;;;;;;;;;4204769;34;20148;-65
2021/11/10 06:36:32;;;;;;;3.20;1.65;;;;;;;;;;4218230;34;20166;-67
2021/11/10 06:38:58;;;;;;;1.83;1.45;;;;;;;;;;4215052;33;20085;-65
2021/11/10 06:41:24;;;;;;;2.55;1.80;;;;;;;;;;4217692;34;20125;-66
2021/11/10 06:43:50;;;;;;;1.75;1.52;;;;;;;;;;4204942;34;20594;-66
2021/11/10 06:46:16;;;;;;;2.30;1.58;;;;;;;;;;4217735;34;20533;-66
2021/11/10 06:48:42;;;;;;;4.10;1.60;;;;;;;;;;4217233;34;20152;-66
2021/11/10 06:51:08;;;;;;;2.60;1.58;;;;;;;;;;4217798;34;20128;-69
2021/11/10 06:53:34;;;;;;;3.70;1.40;;;;;;;;;;4216169;33;20627;-66
2021/11/10 06:56:00;;;;;;;4.32;1.60;;;;;;;;;;4218008;34;20513;-65
2021/11/10 06:58:26;;;;;;;2.85;1.70;;;;;;;;;;4206017;34;20118;-65
2021/11/10 07:00:52;;;;;;;2.28;1.80;;;;;;;;;;4219980;34;20200;-66
2021/11/10 07:03:18;;;;;;;2.05;1.60;;;;;;;;;;4219370;33;20131;-66
2021/11/10 07:05:44;;;;;;;5.68;2.15;;;;;;;;;;4219619;34;20193;-67
2021/11/10 07:08:10;;;;;;;3.83;1.70;;;;;;;;;;4219281;33;20148;-66
2021/11/10 07:10:35;;;;;;;2.47;1.30;;;;;;;;;;4219573;34;20124;-66
2021/11/10 07:13:01;;;;;;;4.25;1.70;;;;;;;;;;4219468;33;20493;-65
2021/11/10 07:15:27;;;;;;;1.80;1.60;;;;;;;;;;4219747;34;20219;-66
2021/11/10 07:17:53;;;;;;;2.08;1.40;;;;;;;;;;4205901;34;20117;-64
2021/11/10 07:20:20;;;;;;;2.37;1.58;;;;;;;;;;4195091;34;20129;-64
2021/11/10 07:22:45;;;;;;;6.75;1.85;;;;;;;;;;4219350;34;20180;-66
2021/11/10 07:25:11;;;;;;;2.58;1.70;;;;;;;;;;4219670;33;20114;-65
2021/11/10 07:27:37;;;;;;;10.50;2.67;;;;;;;;;;4219492;34;20137;-63
2021/11/10 07:30:04;;;;;;;3.67;1.70;;;;;;;;;;4206129;34;20466;-64
2021/11/10 07:32:30;;;;;;;3.12;1.75;;;;;;;;;;4206433;34;20121;-65
2021/11/10 07:34:56;;;;;;;1.95;1.42;;;;;;;;;;4219414;33;20098;-65
2021/11/10 07:37:22;;;;;;;3.28;1.45;;;;;;;;;;4219195;34;20144;-65
2021/11/10 07:39:48;;;;;;;3.53;1.62;;;;;;;;;;4219321;33;20093;-65
2021/11/10 07:42:14;;;;;;;2.95;1.48;;;;;;;;;;4219117;34;20112;-65
2021/11/10 07:44:41;;;;;;;2.45;1.85;;;;;;;;;;4219497;33;20145;-65
2021/11/10 07:47:11;;;;;;;1.73;1.50;;;;;;;;;;4219405;34;20117;-63
2021/11/10 07:49:37;;;;;;;2.33;1.58;;;;;;;;;;4206552;34;20121;-62
2021/11/10 07:52:02;;;;;;;1.73;1.33;;;;;;;;;;4217222;34;20120;-63
2021/11/10 07:54:28;;;;;;;5.00;1.80;;;;;;;;;;4203602;34;20200;-62
2021/11/10 07:56:54;;;;;;;1.80;1.30;;;;;;;;;;4219633;34;20121;-61
2021/11/10 07:59:20;;;;;;;2.80;2.12;;;;;;;;;;4206795;34;20198;-61
2021/11/10 08:01:46;;;;;;;6.35;2.22;;;;;;;;;;4192769;34;20438;-60
2021/11/10 08:04:12;;;;;;;4.10;2.42;;;;;;;;;;4205222;34;20216;-62
2021/11/10 08:06:37;;;;;;;2.45;1.70;;;;;;;;;;4205145;34;20137;-62
2021/11/10 08:09:03;;;;;;;3.67;1.67;;;;;;;;;;4194712;34;20128;-62
2021/11/10 08:11:29;;;;;;;2.92;1.37;;;;;;;;;;4204855;34;20113;-62
2021/11/10 08:13:57;;;;;;;1.77;1.58;;;;;;;;;;4217731;33;20514;-62
2021/11/10 08:16:23;;;;;;;2.95;1.55;;;;;;;;;;4217143;34;20120;-61
2021/11/10 08:18:49;;;;;;;2.10;1.50;;;;;;;;;;4217403;34;20481;-62
2021/11/10 08:21:16;;;;;;;1.40;1.30;;;;;;;;;;4217749;34;20197;-62
2021/11/10 08:23:42;;;;;;;3.87;1.50;;;;;;;;;;4216347;34;20125;-62
2021/11/10 08:26:08;;;;;;;3.05;1.42;;;;;;;;;;4218077;34;20121;-62
2021/11/10 08:28:33;;;;;;;3.75;1.73;;;;;;;;;;4218372;34;20505;-62
2021/11/10 08:31:00;;;;;;;2.60;1.42;;;;;;;;;;4218941;34;20620;-61
2021/11/10 08:33:26;;;;;;;2.40;2.20;;;;;;;;;;4218957;34;20118;-62
2021/11/10 08:35:52;;;;;;;2.90;1.60;;;;;;;;;;4219207;34;20108;-61
2021/11/10 08:38:18;;;;;;;2.50;1.92;;;;;;;;;;4219020;33;20498;-62
2021/11/10 08:40:44;;;;;;;3.37;1.30;;;;;;;;;;4219134;34;20094;-62
2021/11/10 08:43:12;;;;;;;2.50;1.48;;;;;;;;;;4218538;33;20098;-62
2021/11/10 08:45:40;;;;;;;6.25;1.60;;;;;;;;;;4219030;34;20133;-61
2021/11/10 08:48:06;;;;;;;3.17;1.58;;;;;;;;;;4218754;33;20516;-61
2021/11/10 08:50:36;;;;;;;4.75;1.77;;;;;;;;;;4219015;34;20204;-61
2021/11/10 08:53:03;;;;;;;3.03;1.50;;;;;;;;;;4215246;34;20442;-61
2021/11/10 08:55:28;;;;;;;2.17;1.55;;;;;;;;;;4218947;34;20111;-61
2021/11/10 08:57:55;;;;;;;2.25;1.60;;;;;;;;;;4211176;34;20125;-61
2021/11/10 09:00:24;;;;;;;2.33;1.50;;;;;;;;;;4205037;34;20533;-63
2021/11/10 09:02:51;;;;;;;2.03;1.52;;;;;;;;;;4204832;34;20656;-63
2021/11/10 09:05:17;;;;;;;2.22;1.50;;;;;;;;;;4192036;34;20117;-62
2021/11/10 09:07:43;;;;;;;2.33;1.62;;;;;;;;;;4204702;34;20125;-62
2021/11/10 09:10:11;;;;;;;1.73;1.40;;;;;;;;;;4191864;34;20129;-61
2021/11/10 09:12:37;;;;;;;3.60;1.67;;;;;;;;;;4204777;34;20090;-61
2021/11/10 09:15:04;;;;;;;5.40;1.80;;;;;;;;;;4204875;34;20201;-61
2021/11/10 09:17:34;;;;;;;2.35;1.67;;;;;;;;;;4191971;34;20192;-61
2021/11/10 09:20:04;;;;;;;2.45;1.60;;;;;;;;;;4199805;34;20692;-61
2021/11/10 09:22:30;;;;;;;2.40;1.67;;;;;;;;;;4218522;34;20112;-61
2021/11/10 09:24:56;;;;;;;3.35;1.58;;;;;;;;;;4218615;33;20113;-61
2021/11/10 09:27:22;;;;;;;4.32;1.48;;;;;;;;;;4218783;34;20164;-60
2021/11/10 09:29:48;;;;;;;1.58;1.45;;;;;;;;;;4218626;33;20128;-61
2021/11/10 09:32:14;;;;;;;2.78;1.42;;;;;;;;;;4218082;34;20196;-61
2021/11/10 09:34:40;;;;;;;5.07;1.42;;;;;;;;;;4205778;34;20132;-62
2021/11/10 09:37:06;;;;;;;6.03;1.40;;;;;;;;;;4218455;34;20104;-61
2021/11/10 09:39:32;;;;;;;3.97;1.50;;;;;;;;;;4218374;33;20102;-62
2021/11/10 09:41:58;;;;;;;1.12;1.10;;;;;;;;;;4205633;34;20153;-61
2021/11/10 09:44:24;;;;;;;1.58;1.30;;;;;;;;;;4218431;33;20102;-61
2021/11/10 09:46:51;;;;;;;2.03;1.37;;;;;;;;;;4218403;34;20553;-62
2021/11/10 09:49:17;;;;;;;3.42;1.62;;;;;;;;;;4218184;33;20512;-61
2021/11/10 09:51:43;;;;;;;1.80;1.55;;;;;;;;;;4218216;34;20212;-61
2021/11/10 09:54:11;;;;;;;1.70;1.60;;;;;;;;;;4217787;33;20097;-61
2021/11/10 09:56:37;;;;;;;2.30;1.60;;;;;;;;;;4205349;34;20094;-60
2021/11/10 09:59:03;;;;;;;6.20;1.65;;;;;;;;;;4216238;34;20109;-60
2021/11/10 10:01:31;;;;;;;3.97;1.17;;;;;;;;;;4204360;34;20520;-61
2021/11/10 10:03:57;;;;;;;1.20;1.10;;;;;;;;;;4204322;34;20113;-61
2021/11/10 10:06:24;;;;;;;1.73;1.30;;;;;;;;;;4203910;34;20128;-61
2021/11/10 10:08:50;;;;;;;2.25;1.60;;;;;;;;;;4217310;34;20216;-60
2021/11/10 10:11:16;;;;;;;2.83;1.65;;;;;;;;;;4204459;34;20213;-60
2021/11/10 10:13:42;;;;;;;1.45;1.20;;;;;;;;;;4216881;34;20213;-60
2021/11/10 10:16:08;;;;;;;1.40;1.30;;;;;;;;;;4216989;34;20128;-60
2021/11/10 10:18:34;;;;;;;4.97;1.62;;;;;;;;;;4217749;34;20113;-59
2021/11/10 10:21:08;;;;;;;5.75;2.00;;;;;;;;;;4218270;34;20105;-60
2021/11/10 10:23:45;;;;;;;4.12;1.83;;;;;;;;;;4218063;33;20150;-60
2021/11/10 10:26:17;;;;;;;8.85;1.98;;;;;;;;;;4205271;34;20487;-61
2021/11/10 10:28:45;;;;;;;4.15;1.50;;;;;;;;;;4187921;34;20118;-61
2021/11/10 10:31:16;;;;;;;1.67;1.37;;;;;;;;;;4203903;34;20538;-61
2021/11/10 10:33:46;;;;;;;2.10;1.50;;;;;;;;;;4212864;34;20209;-61
2021/11/10 10:36:23;;;;;;;3.00;1.60;;;;;;;;;;4200916;34;20097;-61
2021/11/10 10:39:13;;;;;;;2.00;1.60;;;;;;;;;;4204608;34;20117;-61
2021/11/10 10:41:40;;;;;;;5.15;1.67;;;;;;;;;;4217988;34;20125;-61
2021/11/10 10:44:11;;;;;;;2.10;1.50;;;;;;;;;;4217605;33;20900;-60
2021/11/10 10:46:40;;;;;;;3.70;1.65;;;;;;;;;;4217738;34;20568;-60
2021/11/10 10:49:18;;;;;;;1.40;1.30;;;;;;;;;;4217566;33;20556;-61
2021/11/10 10:51:51;;;;;;;2.03;1.40;;;;;;;;;;4217210;34;20124;-60
2021/11/10 10:54:18;;;;;;;3.50;2.60;;;;;;;;;;4214863;33;20130;-62
2021/11/10 10:56:53;;;;;;;4.90;3.17;;;;;;;;;;4217644;34;20117;-60
2021/11/10 10:59:20;;;;;;;3.45;2.67;;;;;;;;;;4217502;33;20505;-61
2021/11/10 11:01:56;;;;;;;6.28;2.55;;;;;;;;;;4193147;34;20129;-61
2021/11/10 11:04:26;;;;;;;4.25;2.03;;;;;;;;;;4217266;33;20116;-61
2021/11/10 11:07:02;;;;;;;3.45;2.20;;;;;;;;;;4204721;34;20184;-61
2021/11/10 11:09:33;;;;;;;4.28;1.98;;;;;;;;;;4217453;33;20101;-61
2021/11/10 11:12:03;;;;;;;2.55;1.92;;;;;;;;;;4214663;34;20549;-60
2021/11/10 11:14:53;;;;;;;2.22;1.60;;;;;;;;;;4217636;34;20093;-61
2021/11/10 11:17:23;;;;;;;2.30;2.00;;;;;;;;;;4216911;34;20200;-60
2021/11/10 11:20:04;;;;;;;2.83;1.60;;;;;;;;;;4216918;33;20563;-61
2021/11/10 11:22:32;;;;;;;2.22;1.50;;;;;;;;;;4217331;34;20116;-61
2021/11/10 11:25:29;;;;;;;2.15;1.48;;;;;;;;;;4217433;33;20108;-60
2021/11/10 11:28:13;;;;;;;4.87;1.80;;;;;;;;;;4212099;33;20106;-61
2021/11/10 11:30:39;;;;;;;3.37;1.77;;;;;;;;;;4217739;34;20635;-61
2021/11/10 11:33:08;;;;;;;2.42;1.50;;;;;;;;;;4204810;33;20121;-61
2021/11/10 11:35:39;;;;;;;1.35;1.20;;;;;;;;;;4216448;34;20628;-61
2021/11/10 11:38:09;;;;;;;9.05;1.75;;;;;;;;;;4215588;33;20125;-61
2021/11/10 11:40:35;;;;;;;1.50;1.40;;;;;;;;;;4203928;34;20564;-62
2021/11/10 11:43:04;;;;;;;2.28;1.40;;;;;;;;;;4217302;33;20106;-62
2021/11/10 11:45:32;;;;;;;1.77;1.48;;;;;;;;;;4205920;34;20509;-61
2021/11/10 11:47:58;;;;;;;1.62;1.52;;;;;;;;;;4219410;33;20128;-62
2021/11/10 11:50:24;;;;;;;2.10;1.30;;;;;;;;;;4206623;34;20135;-61
2021/11/10 11:52:50;;;;;;;1.80;1.60;;;;;;;;;;4206415;34;20152;-60
2021/11/10 11:55:26;;;;;;;1.55;1.45;;;;;;;;;;4219414;33;20236;-60
2021/11/10 11:58:05;;;;;;;4.35;1.77;;;;;;;;;;4206409;34;20121;-60
2021/11/10 12:00:57;;;;;;;1.83;1.40;;;;;;;;;;4207323;34;20120;-61
2021/11/10 12:03:25;;;;;;;1.37;1.30;;;;;;;;;;4219407;33;20129;-61
2021/11/10 12:06:01;;;;;;;2.70;1.40;;;;;;;;;;4219519;34;20120;-60
2021/11/10 12:08:35;;;;;;;;;;;;;;;;;;4204086;34;20592;-61
2021/11/10 12:11:19;;;;;;;2.20;1.80;;;;;;;;;;4219308;34;19993;-60
2021/11/10 12:14:11;;;;;;;1.95;1.40;;;;;;;;;;4206410;34;20105;-62
2021/11/10 12:17:06;;;;;;;3.75;1.60;;;;;;;;;;4219104;34;20101;-58
2021/11/10 12:19:59;;;;;;;4.15;1.92;;;;;;;;;;4203954;34;20141;-61
2021/11/10 12:22:25;;;;;;;1.67;1.45;;;;;;;;;;4205927;34;20094;-61
2021/11/10 12:25:00;;;;;;;3.90;1.50;;;;;;;;;;4205616;34;20137;-63
2021/11/10 12:27:35;;;;;;;;;;;;;;;;;;4219257;34;20138;-65
2021/11/10 12:30:09;;;;;;;2.85;1.52;;;;;;;;;;4203973;34;19989;-68
2021/11/10 12:32:36;;;;;;;6.43;2.07;;;;;;;;;;4216747;34;20712;-68
2021/11/10 12:35:04;;;;;;;5.37;1.40;;;;;;;;;;4218932;33;20107;-69
2021/11/10 12:37:34;;;;;;;2.42;1.60;;;;;;;;;;4194774;34;20099;-68
2021/11/10 12:40:44;;;;;;;2.25;1.55;;;;;;;;;;4219056;33;20129;-68
2021/11/10 12:43:15;;;;;;;3.78;2.00;;;;;;;;;;4172705;34;20173;-68
2021/11/10 12:45:50;;;;;;;2.50;2.20;;;;;;;;;;4191537;34;20094;-69
2021/11/10 12:48:24;;;;;;;1.83;1.67;;;;;;;;;;4218201;33;20184;-69
2021/11/10 12:50:51;;;;;;;3.25;2.15;;;;;;;;;;4219033;34;20093;-68
2021/11/10 12:53:50;;;;;;;3.28;2.15;;;;;;;;;;4218918;33;20211;-68
2021/11/10 12:56:16;;;;;;;3.30;2.10;;;;;;;;;;4205851;34;20112;-68
2021/11/10 12:58:42;;;;;;;4.30;2.62;;;;;;;;;;4205801;34;20179;-69
2021/11/10 13:01:11;;;;;;;5.70;3.10;;;;;;;;;;4218819;34;20116;-67
2021/11/10 13:03:37;;;;;;;5.65;2.90;;;;;;;;;;4194432;34;20124;-67
2021/11/10 13:06:05;;;;;;;2.90;2.10;;;;;;;;;;4206206;34;20105;-68
2021/11/10 13:08:57;;;;;;;3.60;1.62;;;;;;;;;;4205521;34;20650;-68
2021/11/10 13:11:25;;;;;;;3.80;1.65;;;;;;;;;;4219163;34;20129;-68
2021/11/10 13:14:04;;;;;;;3.40;1.90;;;;;;;;;;4205459;34;20537;-67
2021/11/10 13:16:30;;;;;;;2.65;1.70;;;;;;;;;;4195474;34;20118;-68
2021/11/10 13:18:56;;;;;;;4.07;2.37;;;;;;;;;;4218486;34;20204;-68
2021/11/10 13:21:22;;;;;;;2.70;2.00;;;;;;;;;;4194609;34;20566;-68
2021/11/10 13:24:05;;;;;;;2.47;1.70;;;;;;;;;;4218752;34;20107;-67
2021/11/10 13:26:32;;;;;;;3.25;1.83;;;;;;;;;;4206744;34;20109;-68
2021/11/10 13:28:58;;;;;;;4.80;2.00;;;;;;;;;;4194289;34;20120;-68
2021/11/10 13:31:24;;;;;;;2.60;1.65;;;;;;;;;;4205757;34;20125;-67
2021/11/10 13:33:50;;;;;;;2.03;1.83;;;;;;;;;;4194395;34;20224;-67
2021/11/10 13:36:17;;;;;;;5.05;1.87;;;;;;;;;;4218759;34;20128;-68
2021/11/10 13:38:48;;;;;;;2.03;1.80;;;;;;;;;;4218703;34;20089;-67
2021/11/10 13:41:32;;;;;;;3.28;2.00;;;;;;;;;;4218803;34;20108;-67
2021/11/10 13:44:15;;;;;;;4.65;2.10;;;;;;;;;;4218507;34;20121;-67
2021/11/10 13:46:47;;;;;;;5.35;2.78;;;;;;;;;;4205411;34;20113;-68
2021/11/10 13:49:19;;;;;;;2.58;1.92;;;;;;;;;;4218700;34;20090;-67
2021/11/10 13:51:59;;;;;;;4.50;2.30;;;;;;;;;;4218667;34;20477;-68
2021/11/10 13:54:26;;;;;;;3.17;2.10;;;;;;;;;;4202883;34;20995;-67
2021/11/10 13:56:54;;;;;;;5.35;2.42;;;;;;;;;;4205673;34;20129;-67
2021/11/10 13:59:30;;;;;;;4.68;2.47;;;;;;;;;;4202664;34;20106;-68
2021/11/10 14:01:57;;;;;;;;;;;;;;;;;;4180989;34;20206;-67
2021/11/10 14:04:24;;;;;;;3.05;2.10;;;;;;;;;;4191173;34;20016;-68
2021/11/10 14:07:22;;;;;;;4.20;1.80;;;;;;;;;;4190785;34;20106;-68
2021/11/10 14:10:11;;;;;;;6.28;2.53;;;;;;;;;;4168554;34;20553;-68
2021/11/10 14:12:43;;;;;;;3.55;2.20;;;;;;;;;;4191622;34;20117;-68
2021/11/10 14:15:20;;;;;;;2.83;2.62;;;;;;;;;;4203857;34;20455;-68
2021/11/10 14:18:06;;;;;;;4.80;2.58;;;;;;;;;;4191689;34;20116;-69
2021/11/10 14:20:39;;;;;;;5.65;2.65;;;;;;;;;;4197487;34;20109;-66
2021/11/10 14:23:06;;;;;;;7.40;2.35;;;;;;;;;;4202663;34;20200;-66
2021/11/10 14:25:37;;;;;;;11.40;3.40;;;;;;;;;;4191481;34;20130;-66
2021/11/10 14:28:03;;;;;;;4.68;3.20;;;;;;;;;;4191490;34;20192;-66
2021/11/10 14:30:30;;;;;;;3.30;2.37;;;;;;;;;;4204313;34;20122;-66
2021/11/10 14:32:59;;;;;;;5.53;2.15;;;;;;;;;;4204007;34;20110;-67
2021/11/10 14:35:27;;;;;;;4.95;2.37;;;;;;;;;;4191319;34;20093;-66
2021/11/10 14:38:06;;;;;;;4.82;2.33;;;;;;;;;;4204048;34;20108;-66
2021/11/10 14:43:33;;;;;;;1.80;1.65;;;;;;;;;;4200806;34;20141;-66
2021/11/10 14:46:05;;;;;;;5.28;2.20;;;;;;;;;;4202702;34;20129;-64
2021/11/10 14:48:32;;;;;;;3.85;2.00;;;;;;;;;;4204129;34;20113;-66
2021/11/10 14:50:59;;;;;;;4.12;2.30;;;;;;;;;;4204039;34;20109;-66
2021/11/10 14:53:25;;;;;;;4.43;2.92;;;;;;;;;;4204043;34;20216;-66
2021/11/10 14:56:15;;;;;;;3.95;3.00;;;;;;;;;;4204148;34;20359;-66
2021/11/10 14:58:54;;;;;;;5.57;3.55;;;;;;;;;;4203901;34;20568;-65
2021/11/10 15:01:20;;;;;;;2.58;1.73;;;;;;;;;;4204384;34;20117;-65
2021/11/10 15:03:48;;;;;;;3.95;2.30;;;;;;;;;;4190964;34;20527;-65
2021/11/10 15:06:34;;;;;;;2.97;2.20;;;;;;;;;;4202623;34;20470;-67
2021/11/10 15:09:05;;;;;;;3.83;1.92;;;;;;;;;;4202597;34;20121;-63
2021/11/10 15:11:51;;;;;;;5.47;2.60;;;;;;;;;;4203848;34;20186;-64